sensor_id;sensor_type;location;lat;lon;timestamp;P1;durP1;ratioP1;P2;durP2;ratioP2
7495;SDS011;3789;47.064;15.482;2023-04-06T00:01:34;9.40;;;4.50;;
7495;SDS011;3789;47.064;15.482;2023-04-06T00:04:05;4.67;;;4.10;;
7495;SDS011;3789;47.064;15.482;2023-04-06T00:06:44;6.40;;;3.90;;
7495;SDS011;3789;47.064;15.482;2023-04-06T00:09:14;4.10;;;3.70;;
7495;SDS011;3789;47.064;15.482;2023-04-06T00:11:44;5.03;;;4.43;;
7495;SDS011;3789;47.064;15.482;2023-04-06T00:14:14;6.07;;;4.30;;
7495;SDS011;3789;47.064;15.482;2023-04-06T00:16:45;7.20;;;4.53;;
7495;SDS011;3789;47.064;15.482;2023-04-06T00:19:12;5.10;;;4.23;;
7495;SDS011;3789;47.064;15.482;2023-04-06T00:21:42;5.97;;;4.57;;
7495;SDS011;3789;47.064;15.482;2023-04-06T00:24:11;6.83;;;4.40;;
7495;SDS011;3789;47.064;15.482;2023-04-06T00:26:43;4.40;;;4.00;;
7495;SDS011;3789;47.064;15.482;2023-04-06T00:29:13;4.57;;;4.07;;
7495;SDS011;3789;47.064;15.482;2023-04-06T00:31:46;7.97;;;4.57;;
7495;SDS011;3789;47.064;15.482;2023-04-06T00:34:13;5.03;;;4.47;;
7495;SDS011;3789;47.064;15.482;2023-04-06T00:36:46;5.03;;;4.33;;
7495;SDS011;3789;47.064;15.482;2023-04-06T00:39:13;6.30;;;4.63;;
7495;SDS011;3789;47.064;15.482;2023-04-06T00:41:46;4.33;;;3.93;;
7495;SDS011;3789;47.064;15.482;2023-04-06T00:44:19;7.97;;;5.10;;
7495;SDS011;3789;47.064;15.482;2023-04-06T00:46:52;7.77;;;5.30;;
7495;SDS011;3789;47.064;15.482;2023-04-06T00:49:23;5.77;;;5.10;;
7495;SDS011;3789;47.064;15.482;2023-04-06T00:51:53;5.67;;;4.60;;
7495;SDS011;3789;47.064;15.482;2023-04-06T00:54:20;6.87;;;4.43;;
7495;SDS011;3789;47.064;15.482;2023-04-06T00:56:50;4.67;;;4.10;;
7495;SDS011;3789;47.064;15.482;2023-04-06T00:59:19;7.13;;;4.90;;
7495;SDS011;3789;47.064;15.482;2023-04-06T01:01:49;6.33;;;4.70;;
7495;SDS011;3789;47.064;15.482;2023-04-06T01:04:19;6.07;;;4.77;;
7495;SDS011;3789;47.064;15.482;2023-04-06T01:06:49;5.23;;;4.37;;
7495;SDS011;3789;47.064;15.482;2023-04-06T01:09:20;4.77;;;4.03;;
7495;SDS011;3789;47.064;15.482;2023-04-06T01:11:50;8.80;;;4.73;;
7495;SDS011;3789;47.064;15.482;2023-04-06T01:14:19;5.10;;;4.67;;
7495;SDS011;3789;47.064;15.482;2023-04-06T01:17:02;5.57;;;5.07;;
7495;SDS011;3789;47.064;15.482;2023-04-06T01:19:33;6.40;;;5.80;;
7495;SDS011;3789;47.064;15.482;2023-04-06T01:22:04;8.43;;;5.40;;
7495;SDS011;3789;47.064;15.482;2023-04-06T01:24:40;6.37;;;5.77;;
7495;SDS011;3789;47.064;15.482;2023-04-06T01:27:17;5.70;;;5.20;;
7495;SDS011;3789;47.064;15.482;2023-04-06T01:29:46;6.30;;;5.77;;
7495;SDS011;3789;47.064;15.482;2023-04-06T01:32:14;9.30;;;6.07;;
7495;SDS011;3789;47.064;15.482;2023-04-06T01:34:42;7.30;;;6.60;;
7495;SDS011;3789;47.064;15.482;2023-04-06T01:37:14;6.93;;;6.30;;
7495;SDS011;3789;47.064;15.482;2023-04-06T01:39:43;10.03;;;6.13;;
7495;SDS011;3789;47.064;15.482;2023-04-06T01:42:14;6.50;;;5.90;;
7495;SDS011;3789;47.064;15.482;2023-04-06T01:44:42;6.57;;;5.97;;
7495;SDS011;3789;47.064;15.482;2023-04-06T01:47:14;7.17;;;6.23;;
7495;SDS011;3789;47.064;15.482;2023-04-06T01:49:50;7.03;;;6.27;;
7495;SDS011;3789;47.064;15.482;2023-04-06T01:52:26;7.90;;;6.90;;
7495;SDS011;3789;47.064;15.482;2023-04-06T01:54:54;7.00;;;6.30;;
7495;SDS011;3789;47.064;15.482;2023-04-06T01:57:21;8.60;;;7.90;;
7495;SDS011;3789;47.064;15.482;2023-04-06T01:59:50;7.27;;;6.57;;
7495;SDS011;3789;47.064;15.482;2023-04-06T02:02:20;7.07;;;6.47;;
7495;SDS011;3789;47.064;15.482;2023-04-06T02:04:52;7.73;;;6.47;;
7495;SDS011;3789;47.064;15.482;2023-04-06T02:07:32;8.77;;;6.20;;
7495;SDS011;3789;47.064;15.482;2023-04-06T02:10:00;6.63;;;6.07;;
7495;SDS011;3789;47.064;15.482;2023-04-06T02:12:30;7.37;;;6.67;;
7495;SDS011;3789;47.064;15.482;2023-04-06T02:14:59;7.77;;;7.07;;
7495;SDS011;3789;47.064;15.482;2023-04-06T02:17:26;7.17;;;6.57;;
7495;SDS011;3789;47.064;15.482;2023-04-06T02:19:57;8.50;;;7.70;;
7495;SDS011;3789;47.064;15.482;2023-04-06T02:22:33;8.13;;;6.70;;
7495;SDS011;3789;47.064;15.482;2023-04-06T02:25:05;7.93;;;7.17;;
7495;SDS011;3789;47.064;15.482;2023-04-06T02:27:37;7.13;;;6.53;;
7495;SDS011;3789;47.064;15.482;2023-04-06T02:30:06;7.30;;;6.70;;
7495;SDS011;3789;47.064;15.482;2023-04-06T02:32:38;8.20;;;7.57;;
7495;SDS011;3789;47.064;15.482;2023-04-06T02:35:06;7.67;;;7.07;;
7495;SDS011;3789;47.064;15.482;2023-04-06T02:37:37;6.87;;;6.30;;
7495;SDS011;3789;47.064;15.482;2023-04-06T02:40:07;7.83;;;7.13;;
7495;SDS011;3789;47.064;15.482;2023-04-06T02:42:36;7.37;;;6.77;;
7495;SDS011;3789;47.064;15.482;2023-04-06T02:45:18;7.97;;;7.27;;
7495;SDS011;3789;47.064;15.482;2023-04-06T02:47:57;7.33;;;6.63;;
7495;SDS011;3789;47.064;15.482;2023-04-06T02:50:28;7.70;;;7.00;;
7495;SDS011;3789;47.064;15.482;2023-04-06T02:52:58;7.97;;;7.13;;
7495;SDS011;3789;47.064;15.482;2023-04-06T02:55:28;8.07;;;7.47;;
7495;SDS011;3789;47.064;15.482;2023-04-06T02:57:55;7.60;;;7.00;;
7495;SDS011;3789;47.064;15.482;2023-04-06T03:00:23;7.23;;;6.63;;
7495;SDS011;3789;47.064;15.482;2023-04-06T03:02:55;9.27;;;6.43;;
7495;SDS011;3789;47.064;15.482;2023-04-06T03:05:25;6.57;;;6.07;;
7495;SDS011;3789;47.064;15.482;2023-04-06T03:08:00;8.90;;;7.07;;
7495;SDS011;3789;47.064;15.482;2023-04-06T03:10:29;6.93;;;6.33;;
7495;SDS011;3789;47.064;15.482;2023-04-06T03:12:56;7.43;;;6.73;;
7495;SDS011;3789;47.064;15.482;2023-04-06T03:15:32;7.23;;;6.57;;
7495;SDS011;3789;47.064;15.482;2023-04-06T03:18:04;7.43;;;6.83;;
7495;SDS011;3789;47.064;15.482;2023-04-06T03:20:34;7.60;;;6.97;;
7495;SDS011;3789;47.064;15.482;2023-04-06T03:23:03;7.20;;;6.53;;
7495;SDS011;3789;47.064;15.482;2023-04-06T03:25:32;7.67;;;7.10;;
7495;SDS011;3789;47.064;15.482;2023-04-06T03:28:11;6.93;;;6.43;;
7495;SDS011;3789;47.064;15.482;2023-04-06T03:30:39;7.27;;;6.53;;
7495;SDS011;3789;47.064;15.482;2023-04-06T03:33:08;6.83;;;6.23;;
7495;SDS011;3789;47.064;15.482;2023-04-06T03:35:37;8.17;;;6.43;;
7495;SDS011;3789;47.064;15.482;2023-04-06T03:38:05;8.43;;;7.73;;
7495;SDS011;3789;47.064;15.482;2023-04-06T03:40:33;7.33;;;6.70;;
7495;SDS011;3789;47.064;15.482;2023-04-06T03:43:00;7.00;;;6.50;;
7495;SDS011;3789;47.064;15.482;2023-04-06T03:45:28;8.00;;;7.20;;
7495;SDS011;3789;47.064;15.482;2023-04-06T03:47:59;8.57;;;7.60;;
7495;SDS011;3789;47.064;15.482;2023-04-06T03:50:27;8.13;;;7.30;;
7495;SDS011;3789;47.064;15.482;2023-04-06T03:52:56;9.40;;;7.80;;
7495;SDS011;3789;47.064;15.482;2023-04-06T03:55:26;8.87;;;7.43;;
7495;SDS011;3789;47.064;15.482;2023-04-06T03:57:56;8.43;;;6.90;;
7495;SDS011;3789;47.064;15.482;2023-04-06T04:00:24;7.70;;;6.97;;
7495;SDS011;3789;47.064;15.482;2023-04-06T04:03:03;7.33;;;6.63;;
7495;SDS011;3789;47.064;15.482;2023-04-06T04:05:34;8.93;;;7.17;;
7495;SDS011;3789;47.064;15.482;2023-04-06T04:08:12;7.00;;;5.40;;
7495;SDS011;3789;47.064;15.482;2023-04-06T04:10:41;6.90;;;6.20;;
7495;SDS011;3789;47.064;15.482;2023-04-06T04:13:11;6.93;;;5.53;;
7495;SDS011;3789;47.064;15.482;2023-04-06T04:15:38;6.90;;;6.20;;
7495;SDS011;3789;47.064;15.482;2023-04-06T04:18:07;6.00;;;5.33;;
7495;SDS011;3789;47.064;15.482;2023-04-06T04:20:37;6.83;;;5.70;;
7495;SDS011;3789;47.064;15.482;2023-04-06T04:23:05;6.10;;;5.50;;
7495;SDS011;3789;47.064;15.482;2023-04-06T04:25:32;8.27;;;5.37;;
7495;SDS011;3789;47.064;15.482;2023-04-06T04:28:02;5.77;;;5.13;;
7495;SDS011;3789;47.064;15.482;2023-04-06T04:30:32;7.57;;;4.70;;
7495;SDS011;3789;47.064;15.482;2023-04-06T04:33:13;8.37;;;5.07;;
7495;SDS011;3789;47.064;15.482;2023-04-06T04:35:51;5.43;;;5.00;;
7495;SDS011;3789;47.064;15.482;2023-04-06T04:38:27;5.73;;;4.70;;
7495;SDS011;3789;47.064;15.482;2023-04-06T04:40:57;7.67;;;5.53;;
7495;SDS011;3789;47.064;15.482;2023-04-06T04:43:26;8.17;;;5.07;;
7495;SDS011;3789;47.064;15.482;2023-04-06T04:45:59;4.97;;;4.47;;
7495;SDS011;3789;47.064;15.482;2023-04-06T04:48:32;5.63;;;4.77;;
7495;SDS011;3789;47.064;15.482;2023-04-06T04:51:01;5.27;;;4.77;;
7495;SDS011;3789;47.064;15.482;2023-04-06T04:53:34;8.13;;;5.43;;
7495;SDS011;3789;47.064;15.482;2023-04-06T04:56:12;5.27;;;4.50;;
7495;SDS011;3789;47.064;15.482;2023-04-06T04:58:43;7.90;;;4.47;;
7495;SDS011;3789;47.064;15.482;2023-04-06T05:01:12;5.50;;;4.50;;
7495;SDS011;3789;47.064;15.482;2023-04-06T05:03:41;6.43;;;4.60;;
7495;SDS011;3789;47.064;15.482;2023-04-06T05:06:13;3.43;;;3.13;;
7495;SDS011;3789;47.064;15.482;2023-04-06T05:08:46;5.63;;;3.90;;
7495;SDS011;3789;47.064;15.482;2023-04-06T05:11:16;4.77;;;3.70;;
7495;SDS011;3789;47.064;15.482;2023-04-06T05:13:50;7.60;;;4.07;;
7495;SDS011;3789;47.064;15.482;2023-04-06T05:16:20;5.47;;;4.07;;
7495;SDS011;3789;47.064;15.482;2023-04-06T05:18:47;6.80;;;4.80;;
7495;SDS011;3789;47.064;15.482;2023-04-06T05:21:19;5.83;;;4.80;;
7495;SDS011;3789;47.064;15.482;2023-04-06T05:23:48;6.20;;;4.50;;
7495;SDS011;3789;47.064;15.482;2023-04-06T05:26:17;6.07;;;4.37;;
7495;SDS011;3789;47.064;15.482;2023-04-06T05:28:47;5.57;;;4.13;;
7495;SDS011;3789;47.064;15.482;2023-04-06T05:31:18;4.93;;;4.30;;
7495;SDS011;3789;47.064;15.482;2023-04-06T05:33:47;4.70;;;3.97;;
7495;SDS011;3789;47.064;15.482;2023-04-06T05:36:15;4.83;;;3.70;;
7495;SDS011;3789;47.064;15.482;2023-04-06T05:38:46;6.03;;;3.67;;
7495;SDS011;3789;47.064;15.482;2023-04-06T05:41:14;4.80;;;3.90;;
7495;SDS011;3789;47.064;15.482;2023-04-06T05:43:43;5.97;;;4.20;;
7495;SDS011;3789;47.064;15.482;2023-04-06T05:46:16;5.17;;;4.50;;
7495;SDS011;3789;47.064;15.482;2023-04-06T05:48:44;6.47;;;4.40;;
7495;SDS011;3789;47.064;15.482;2023-04-06T05:51:13;5.57;;;3.93;;
7495;SDS011;3789;47.064;15.482;2023-04-06T05:53:52;7.07;;;4.50;;
7495;SDS011;3789;47.064;15.482;2023-04-06T05:56:19;5.60;;;4.37;;
7495;SDS011;3789;47.064;15.482;2023-04-06T05:58:48;4.80;;;4.30;;
7495;SDS011;3789;47.064;15.482;2023-04-06T06:01:15;6.50;;;5.00;;
7495;SDS011;3789;47.064;15.482;2023-04-06T06:03:56;7.77;;;4.30;;
7495;SDS011;3789;47.064;15.482;2023-04-06T06:06:29;6.35;;;4.00;;
7495;SDS011;3789;47.064;15.482;2023-04-06T06:08:58;4.88;;;4.40;;
7495;SDS011;3789;47.064;15.482;2023-04-06T06:11:31;6.45;;;4.25;;
7495;SDS011;3789;47.064;15.482;2023-04-06T06:14:01;5.35;;;4.38;;
7495;SDS011;3789;47.064;15.482;2023-04-06T06:16:37;6.35;;;4.38;;
7495;SDS011;3789;47.064;15.482;2023-04-06T06:19:15;6.15;;;4.13;;
7495;SDS011;3789;47.064;15.482;2023-04-06T06:21:44;6.63;;;4.05;;
7495;SDS011;3789;47.064;15.482;2023-04-06T06:24:21;4.88;;;4.38;;
7495;SDS011;3789;47.064;15.482;2023-04-06T06:27:03;7.05;;;5.40;;
7495;SDS011;3789;47.064;15.482;2023-04-06T06:29:33;5.95;;;5.35;;
7495;SDS011;3789;47.064;15.482;2023-04-06T06:32:01;5.68;;;5.18;;
7495;SDS011;3789;47.064;15.482;2023-04-06T06:34:30;7.55;;;5.57;;
7495;SDS011;3789;47.064;15.482;2023-04-06T06:37:02;8.18;;;5.07;;
7495;SDS011;3789;47.064;15.482;2023-04-06T06:39:32;6.00;;;4.95;;
7495;SDS011;3789;47.064;15.482;2023-04-06T06:42:02;6.13;;;5.10;;
7495;SDS011;3789;47.064;15.482;2023-04-06T06:44:35;6.50;;;4.82;;
7495;SDS011;3789;47.064;15.482;2023-04-06T06:47:14;5.35;;;4.40;;
7495;SDS011;3789;47.064;15.482;2023-04-06T06:49:45;4.65;;;4.00;;
7495;SDS011;3789;47.064;15.482;2023-04-06T06:52:17;5.57;;;4.15;;
7495;SDS011;3789;47.064;15.482;2023-04-06T06:54:45;5.00;;;4.45;;
7495;SDS011;3789;47.064;15.482;2023-04-06T06:57:15;5.18;;;4.28;;
7495;SDS011;3789;47.064;15.482;2023-04-06T06:59:44;5.30;;;4.55;;
7495;SDS011;3789;47.064;15.482;2023-04-06T07:02:15;6.13;;;4.80;;
7495;SDS011;3789;47.064;15.482;2023-04-06T07:04:47;5.75;;;4.35;;
7495;SDS011;3789;47.064;15.482;2023-04-06T07:07:17;6.93;;;4.75;;
7495;SDS011;3789;47.064;15.482;2023-04-06T07:09:45;6.45;;;3.92;;
7495;SDS011;3789;47.064;15.482;2023-04-06T07:12:14;5.82;;;4.05;;
7495;SDS011;3789;47.064;15.482;2023-04-06T07:14:44;4.80;;;4.10;;
7495;SDS011;3789;47.064;15.482;2023-04-06T07:17:13;5.05;;;4.53;;
7495;SDS011;3789;47.064;15.482;2023-04-06T07:19:51;5.20;;;4.68;;
7495;SDS011;3789;47.064;15.482;2023-04-06T07:22:18;6.97;;;5.03;;
7495;SDS011;3789;47.064;15.482;2023-04-06T07:24:47;6.30;;;5.53;;
7495;SDS011;3789;47.064;15.482;2023-04-06T07:27:16;9.40;;;5.95;;
7495;SDS011;3789;47.064;15.482;2023-04-06T07:29:46;12.00;;;6.10;;
7495;SDS011;3789;47.064;15.482;2023-04-06T07:32:14;8.32;;;5.25;;
7495;SDS011;3789;47.064;15.482;2023-04-06T07:34:44;6.88;;;5.63;;
7495;SDS011;3789;47.064;15.482;2023-04-06T07:37:17;6.93;;;5.00;;
7495;SDS011;3789;47.064;15.482;2023-04-06T07:39:48;10.23;;;5.25;;
7495;SDS011;3789;47.064;15.482;2023-04-06T07:42:19;9.77;;;5.45;;
7495;SDS011;3789;47.064;15.482;2023-04-06T07:44:57;8.48;;;5.20;;
7495;SDS011;3789;47.064;15.482;2023-04-06T07:47:27;9.23;;;5.00;;
7495;SDS011;3789;47.064;15.482;2023-04-06T07:49:58;5.00;;;4.28;;
7495;SDS011;3789;47.064;15.482;2023-04-06T07:52:29;6.10;;;4.95;;
7495;SDS011;3789;47.064;15.482;2023-04-06T07:55:04;5.93;;;5.32;;
7495;SDS011;3789;47.064;15.482;2023-04-06T07:57:34;6.70;;;5.22;;
7495;SDS011;3789;47.064;15.482;2023-04-06T08:00:02;5.95;;;5.35;;
7495;SDS011;3789;47.064;15.482;2023-04-06T08:02:31;7.72;;;5.50;;
7495;SDS011;3789;47.064;15.482;2023-04-06T08:05:00;6.40;;;5.13;;
7495;SDS011;3789;47.064;15.482;2023-04-06T08:07:28;7.85;;;5.10;;
7495;SDS011;3789;47.064;15.482;2023-04-06T08:09:58;6.85;;;4.88;;
7495;SDS011;3789;47.064;15.482;2023-04-06T08:12:27;5.63;;;5.10;;
7495;SDS011;3789;47.064;15.482;2023-04-06T08:15:01;8.52;;;5.00;;
7495;SDS011;3789;47.064;15.482;2023-04-06T08:17:33;10.20;;;5.68;;
7495;SDS011;3789;47.064;15.482;2023-04-06T08:20:02;7.00;;;5.60;;
7495;SDS011;3789;47.064;15.482;2023-04-06T08:22:31;8.00;;;5.90;;
7495;SDS011;3789;47.064;15.482;2023-04-06T08:25:02;6.82;;;5.55;;
7495;SDS011;3789;47.064;15.482;2023-04-06T08:27:32;5.97;;;5.35;;
7495;SDS011;3789;47.064;15.482;2023-04-06T08:30:01;7.40;;;5.40;;
7495;SDS011;3789;47.064;15.482;2023-04-06T08:32:32;6.57;;;5.63;;
7495;SDS011;3789;47.064;15.482;2023-04-06T08:35:02;7.18;;;5.60;;
7495;SDS011;3789;47.064;15.482;2023-04-06T08:37:33;6.22;;;4.97;;
7495;SDS011;3789;47.064;15.482;2023-04-06T08:40:02;8.88;;;5.43;;
7495;SDS011;3789;47.064;15.482;2023-04-06T08:42:32;6.80;;;5.40;;
7495;SDS011;3789;47.064;15.482;2023-04-06T08:45:05;7.43;;;4.68;;
7495;SDS011;3789;47.064;15.482;2023-04-06T08:47:38;6.53;;;4.70;;
7495;SDS011;3789;47.064;15.482;2023-04-06T08:50:09;6.35;;;4.55;;
7495;SDS011;3789;47.064;15.482;2023-04-06T08:52:40;5.07;;;4.57;;
7495;SDS011;3789;47.064;15.482;2023-04-06T08:55:12;6.43;;;4.57;;
7495;SDS011;3789;47.064;15.482;2023-04-06T08:57:47;10.30;;;3.77;;
7495;SDS011;3789;47.064;15.482;2023-04-06T09:00:16;4.00;;;3.33;;
7495;SDS011;3789;47.064;15.482;2023-04-06T09:02:45;4.47;;;3.00;;
7495;SDS011;3789;47.064;15.482;2023-04-06T09:05:17;3.40;;;3.07;;
7495;SDS011;3789;47.064;15.482;2023-04-06T09:07:48;3.43;;;3.10;;
7495;SDS011;3789;47.064;15.482;2023-04-06T09:10:19;3.67;;;3.27;;
7495;SDS011;3789;47.064;15.482;2023-04-06T09:12:50;4.80;;;3.50;;
7495;SDS011;3789;47.064;15.482;2023-04-06T09:15:18;3.83;;;3.27;;
7495;SDS011;3789;47.064;15.482;2023-04-06T09:17:49;3.43;;;3.13;;
7495;SDS011;3789;47.064;15.482;2023-04-06T09:20:24;4.77;;;3.50;;
7495;SDS011;3789;47.064;15.482;2023-04-06T09:23:06;3.43;;;3.13;;
7495;SDS011;3789;47.064;15.482;2023-04-06T09:25:45;3.83;;;3.20;;
7495;SDS011;3789;47.064;15.482;2023-04-06T09:28:14;3.43;;;3.13;;
7495;SDS011;3789;47.064;15.482;2023-04-06T09:30:51;3.50;;;3.00;;
7495;SDS011;3789;47.064;15.482;2023-04-06T09:33:22;3.43;;;3.10;;
7495;SDS011;3789;47.064;15.482;2023-04-06T09:35:58;4.40;;;3.43;;
7495;SDS011;3789;47.064;15.482;2023-04-06T09:38:28;4.17;;;2.90;;
7495;SDS011;3789;47.064;15.482;2023-04-06T09:40:58;3.50;;;3.20;;
7495;SDS011;3789;47.064;15.482;2023-04-06T09:43:27;3.40;;;3.10;;
7495;SDS011;3789;47.064;15.482;2023-04-06T09:45:57;3.87;;;3.07;;
7495;SDS011;3789;47.064;15.482;2023-04-06T09:48:31;5.20;;;3.00;;
7495;SDS011;3789;47.064;15.482;2023-04-06T09:51:21;4.10;;;2.90;;
7495;SDS011;3789;47.064;15.482;2023-04-06T09:53:55;5.23;;;3.20;;
7495;SDS011;3789;47.064;15.482;2023-04-06T09:56:28;3.40;;;3.10;;
7495;SDS011;3789;47.064;15.482;2023-04-06T09:59:10;4.40;;;3.30;;
7495;SDS011;3789;47.064;15.482;2023-04-06T10:01:50;4.00;;;3.50;;
7495;SDS011;3789;47.064;15.482;2023-04-06T10:04:30;4.73;;;3.10;;
7495;SDS011;3789;47.064;15.482;2023-04-06T10:07:21;3.50;;;3.20;;
7495;SDS011;3789;47.064;15.482;2023-04-06T10:09:51;3.40;;;3.00;;
7495;SDS011;3789;47.064;15.482;2023-04-06T10:12:32;2.83;;;2.63;;
7495;SDS011;3789;47.064;15.482;2023-04-06T10:15:05;3.67;;;2.80;;
7495;SDS011;3789;47.064;15.482;2023-04-06T10:17:35;4.23;;;2.97;;
7495;SDS011;3789;47.064;15.482;2023-04-06T10:20:39;2.87;;;2.53;;
7495;SDS011;3789;47.064;15.482;2023-04-06T10:26:05;4.20;;;2.63;;
7495;SDS011;3789;47.064;15.482;2023-04-06T10:28:41;4.10;;;3.00;;
7495;SDS011;3789;47.064;15.482;2023-04-06T10:31:12;4.37;;;2.77;;
7495;SDS011;3789;47.064;15.482;2023-04-06T10:33:41;4.40;;;2.60;;
7495;SDS011;3789;47.064;15.482;2023-04-06T10:36:25;3.73;;;2.70;;
7495;SDS011;3789;47.064;15.482;2023-04-06T10:39:03;3.30;;;2.53;;
7495;SDS011;3789;47.064;15.482;2023-04-06T10:41:45;3.00;;;2.70;;
7495;SDS011;3789;47.064;15.482;2023-04-06T10:44:17;3.40;;;3.00;;
7495;SDS011;3789;47.064;15.482;2023-04-06T10:46:55;3.43;;;2.80;;
7495;SDS011;3789;47.064;15.482;2023-04-06T10:49:33;2.27;;;2.07;;
7495;SDS011;3789;47.064;15.482;2023-04-06T10:52:02;3.17;;;2.70;;
7495;SDS011;3789;47.064;15.482;2023-04-06T10:54:41;3.93;;;2.90;;
7495;SDS011;3789;47.064;15.482;2023-04-06T10:57:15;2.80;;;2.50;;
7495;SDS011;3789;47.064;15.482;2023-04-06T10:59:52;2.80;;;2.43;;
7495;SDS011;3789;47.064;15.482;2023-04-06T11:02:21;3.03;;;2.73;;
7495;SDS011;3789;47.064;15.482;2023-04-06T11:04:58;4.70;;;2.50;;
7495;SDS011;3789;47.064;15.482;2023-04-06T11:07:30;2.70;;;2.23;;
7495;SDS011;3789;47.064;15.482;2023-04-06T11:09:59;2.77;;;2.30;;
7495;SDS011;3789;47.064;15.482;2023-04-06T11:12:43;3.37;;;2.20;;
7495;SDS011;3789;47.064;15.482;2023-04-06T11:15:12;2.77;;;2.13;;
7495;SDS011;3789;47.064;15.482;2023-04-06T11:17:42;3.37;;;2.60;;
7495;SDS011;3789;47.064;15.482;2023-04-06T11:20:16;3.77;;;2.50;;
7495;SDS011;3789;47.064;15.482;2023-04-06T11:22:54;7.73;;;2.87;;
7495;SDS011;3789;47.064;15.482;2023-04-06T11:25:21;3.27;;;2.53;;
7495;SDS011;3789;47.064;15.482;2023-04-06T11:27:49;2.60;;;2.40;;
7495;SDS011;3789;47.064;15.482;2023-04-06T11:30:21;2.87;;;2.50;;
7495;SDS011;3789;47.064;15.482;2023-04-06T11:32:50;3.83;;;2.70;;
7495;SDS011;3789;47.064;15.482;2023-04-06T11:35:23;2.90;;;2.27;;
7495;SDS011;3789;47.064;15.482;2023-04-06T11:37:52;4.33;;;2.50;;
7495;SDS011;3789;47.064;15.482;2023-04-06T11:40:22;2.40;;;2.20;;
7495;SDS011;3789;47.064;15.482;2023-04-06T11:42:55;2.53;;;2.30;;
7495;SDS011;3789;47.064;15.482;2023-04-06T11:45:25;3.00;;;2.03;;
7495;SDS011;3789;47.064;15.482;2023-04-06T11:47:57;3.93;;;2.43;;
7495;SDS011;3789;47.064;15.482;2023-04-06T11:50:31;2.13;;;1.93;;
7495;SDS011;3789;47.064;15.482;2023-04-06T11:53:03;1.93;;;1.83;;
7495;SDS011;3789;47.064;15.482;2023-04-06T11:55:37;2.43;;;2.23;;
7495;SDS011;3789;47.064;15.482;2023-04-06T11:58:07;3.60;;;2.20;;
7495;SDS011;3789;47.064;15.482;2023-04-06T12:00:43;4.67;;;2.30;;
7495;SDS011;3789;47.064;15.482;2023-04-06T12:03:13;2.90;;;2.03;;
7495;SDS011;3789;47.064;15.482;2023-04-06T12:05:41;1.87;;;1.70;;
7495;SDS011;3789;47.064;15.482;2023-04-06T12:08:09;2.37;;;2.17;;
7495;SDS011;3789;47.064;15.482;2023-04-06T12:10:38;2.83;;;2.20;;
7495;SDS011;3789;47.064;15.482;2023-04-06T12:13:12;3.90;;;2.00;;
7495;SDS011;3789;47.064;15.482;2023-04-06T12:15:40;2.13;;;1.60;;
7495;SDS011;3789;47.064;15.482;2023-04-06T12:18:10;2.20;;;2.00;;
7495;SDS011;3789;47.064;15.482;2023-04-06T12:20:38;2.80;;;2.17;;
7495;SDS011;3789;47.064;15.482;2023-04-06T12:23:09;2.23;;;1.90;;
7495;SDS011;3789;47.064;15.482;2023-04-06T12:25:42;2.20;;;2.00;;
7495;SDS011;3789;47.064;15.482;2023-04-06T12:28:09;2.70;;;2.33;;
7495;SDS011;3789;47.064;15.482;2023-04-06T12:30:39;3.30;;;2.30;;
7495;SDS011;3789;47.064;15.482;2023-04-06T12:40:36;1.90;;;1.73;;
7495;SDS011;3789;47.064;15.482;2023-04-06T12:43:05;4.23;;;2.47;;
7495;SDS011;3789;47.064;15.482;2023-04-06T12:45:35;4.23;;;1.80;;
7495;SDS011;3789;47.064;15.482;2023-04-06T12:48:03;2.70;;;1.90;;
7495;SDS011;3789;47.064;15.482;2023-04-06T12:50:40;3.40;;;1.77;;
7495;SDS011;3789;47.064;15.482;2023-04-06T12:53:09;4.27;;;2.33;;
7495;SDS011;3789;47.064;15.482;2023-04-06T12:55:42;4.63;;;2.17;;
7495;SDS011;3789;47.064;15.482;2023-04-06T12:58:11;4.00;;;2.27;;
7495;SDS011;3789;47.064;15.482;2023-04-06T13:00:48;6.47;;;2.17;;
7495;SDS011;3789;47.064;15.482;2023-04-06T13:03:20;2.73;;;2.20;;
7495;SDS011;3789;47.064;15.482;2023-04-06T13:05:51;2.60;;;2.00;;
7495;SDS011;3789;47.064;15.482;2023-04-06T13:08:20;2.50;;;2.00;;
7495;SDS011;3789;47.064;15.482;2023-04-06T13:10:49;1.83;;;1.63;;
7495;SDS011;3789;47.064;15.482;2023-04-06T13:13:24;2.70;;;2.00;;
7495;SDS011;3789;47.064;15.482;2023-04-06T13:15:55;2.70;;;1.80;;
7495;SDS011;3789;47.064;15.482;2023-04-06T13:18:35;2.70;;;1.80;;
7495;SDS011;3789;47.064;15.482;2023-04-06T13:21:16;3.00;;;2.10;;
7495;SDS011;3789;47.064;15.482;2023-04-06T13:23:45;2.50;;;1.70;;
7495;SDS011;3789;47.064;15.482;2023-04-06T13:26:25;2.20;;;1.90;;
7495;SDS011;3789;47.064;15.482;2023-04-06T13:28:56;2.23;;;2.00;;
7495;SDS011;3789;47.064;15.482;2023-04-06T13:31:23;2.13;;;1.93;;
7495;SDS011;3789;47.064;15.482;2023-04-06T13:33:50;2.10;;;1.90;;
7495;SDS011;3789;47.064;15.482;2023-04-06T13:36:21;2.20;;;1.80;;
7495;SDS011;3789;47.064;15.482;2023-04-06T13:38:50;2.27;;;2.07;;
7495;SDS011;3789;47.064;15.482;2023-04-06T13:41:28;2.00;;;1.80;;
7495;SDS011;3789;47.064;15.482;2023-04-06T13:43:55;2.20;;;2.00;;
7495;SDS011;3789;47.064;15.482;2023-04-06T13:46:25;4.23;;;2.33;;
7495;SDS011;3789;47.064;15.482;2023-04-06T13:48:54;3.13;;;2.83;;
7495;SDS011;3789;47.064;15.482;2023-04-06T13:51:24;2.00;;;1.90;;
7495;SDS011;3789;47.064;15.482;2023-04-06T13:53:57;2.80;;;1.87;;
7495;SDS011;3789;47.064;15.482;2023-04-06T13:56:25;3.70;;;2.10;;
7495;SDS011;3789;47.064;15.482;2023-04-06T13:58:54;1.80;;;1.60;;
7495;SDS011;3789;47.064;15.482;2023-04-06T14:01:29;2.30;;;2.07;;
7495;SDS011;3789;47.064;15.482;2023-04-06T14:03:56;2.50;;;1.90;;
7495;SDS011;3789;47.064;15.482;2023-04-06T14:06:26;2.57;;;2.03;;
7495;SDS011;3789;47.064;15.482;2023-04-06T14:09:02;2.03;;;1.57;;
7495;SDS011;3789;47.064;15.482;2023-04-06T14:11:34;3.00;;;1.90;;
7495;SDS011;3789;47.064;15.482;2023-04-06T14:14:11;2.00;;;1.73;;
7495;SDS011;3789;47.064;15.482;2023-04-06T14:16:39;2.10;;;1.90;;
7495;SDS011;3789;47.064;15.482;2023-04-06T14:19:10;1.80;;;1.70;;
7495;SDS011;3789;47.064;15.482;2023-04-06T14:21:40;3.63;;;1.80;;
7495;SDS011;3789;47.064;15.482;2023-04-06T14:24:09;2.50;;;2.13;;
7495;SDS011;3789;47.064;15.482;2023-04-06T14:26:39;2.43;;;1.80;;
7495;SDS011;3789;47.064;15.482;2023-04-06T14:29:08;1.70;;;1.60;;
7495;SDS011;3789;47.064;15.482;2023-04-06T14:31:40;1.60;;;1.50;;
7495;SDS011;3789;47.064;15.482;2023-04-06T14:34:10;1.80;;;1.60;;
7495;SDS011;3789;47.064;15.482;2023-04-06T14:36:38;1.97;;;1.57;;
7495;SDS011;3789;47.064;15.482;2023-04-06T14:39:08;1.67;;;1.57;;
7495;SDS011;3789;47.064;15.482;2023-04-06T14:41:52;2.20;;;1.80;;
7495;SDS011;3789;47.064;15.482;2023-04-06T14:44:20;1.83;;;1.60;;
7495;SDS011;3789;47.064;15.482;2023-04-06T14:46:58;2.50;;;2.00;;
7495;SDS011;3789;47.064;15.482;2023-04-06T14:49:25;2.50;;;1.60;;
7495;SDS011;3789;47.064;15.482;2023-04-06T14:52:03;3.07;;;1.80;;
7495;SDS011;3789;47.064;15.482;2023-04-06T14:54:33;2.37;;;1.73;;
7495;SDS011;3789;47.064;15.482;2023-04-06T14:57:01;3.63;;;2.07;;
7495;SDS011;3789;47.064;15.482;2023-04-06T14:59:30;1.60;;;1.50;;
7495;SDS011;3789;47.064;15.482;2023-04-06T15:02:04;1.80;;;1.50;;
7495;SDS011;3789;47.064;15.482;2023-04-06T15:04:33;2.00;;;1.90;;
7495;SDS011;3789;47.064;15.482;2023-04-06T15:07:09;1.90;;;1.73;;
7495;SDS011;3789;47.064;15.482;2023-04-06T15:09:38;3.03;;;1.87;;
7495;SDS011;3789;47.064;15.482;2023-04-06T15:12:06;3.10;;;1.70;;
7495;SDS011;3789;47.064;15.482;2023-04-06T15:14:37;2.33;;;1.67;;
7495;SDS011;3789;47.064;15.482;2023-04-06T15:17:06;2.53;;;1.87;;
7495;SDS011;3789;47.064;15.482;2023-04-06T15:19:36;2.20;;;1.70;;
7495;SDS011;3789;47.064;15.482;2023-04-06T15:22:10;1.70;;;1.60;;
7495;SDS011;3789;47.064;15.482;2023-04-06T15:24:40;1.83;;;1.60;;
7495;SDS011;3789;47.064;15.482;2023-04-06T15:27:07;1.70;;;1.60;;
7495;SDS011;3789;47.064;15.482;2023-04-06T15:29:36;2.13;;;1.70;;
7495;SDS011;3789;47.064;15.482;2023-04-06T15:32:05;4.50;;;1.93;;
7495;SDS011;3789;47.064;15.482;2023-04-06T15:34:37;1.77;;;1.50;;
7495;SDS011;3789;47.064;15.482;2023-04-06T15:37:05;1.83;;;1.70;;